Skip Navigation LinksHome page > Weather > Current weather Skip Navigation Links

Current Weather

Wellsville Muni Arpt,Tarantine Fld, Wellsville, N.Y.

For information only: do not use for flight planning or navigation.
Latest weather
Observation time Monday, September 25, 2017 5:56 PM EDT
Local time Monday, September 25, 2017 6:28 PM EDT
Flight conditions Visual Meteorological Conditions
Winds
Wind direction North-Northeast (20°)
Wind speed 5 mph
Visibility 10 mi.
Sky condition
Ceiling unlimited
Sky clear
Temperature 84°F
Dewpoint 58°F
Altimeter 30.12 in.Hg
Derived measurements
Relative humidity 41%
Heat index 84°F
Density altitude 3724 ft.
Sea-level pressure 30.07 in.Hg
Remarks
Fully automated report.
System requires maintenance.
Automated weather observing station with precipitation discriminator.
METAR KELZ 252156Z AUTO 02004KT 10SM CLR 29/14 A3012 RMK AO2 SLP184 T02890144 $

Settings

Location code

InnerDrive.Weather 4.0.6144.1 Release CLR 4.0.30319.36366
Copyright ©2015 Inner Drive Technology. All rights reserved. Portions Copyright ©1986-2015 David Braverman.

Find weather

Site navigation


Skip Navigation Links

Place info

Page info

PayPal - The safer, easier way to pay online!

Return home.

Copyright ©2017 Inner Drive Technology. Purveyors of fine, hand-crafted computer software. Page printed 2017-09-25T22:28:54 UTC.